createdAt,value
2022-10-08T00:10:10.453Z,0.78
2022-10-08T00:22:10.967Z,0.39
2022-10-08T00:34:11.347Z,0.24
2022-10-08T00:46:11.862Z,0.27
2022-10-08T00:58:12.325Z,0.25
2022-10-08T01:10:12.720Z,0.39
2022-10-08T01:22:13.157Z,0.14
2022-10-08T01:34:13.619Z,0.23
2022-10-08T01:46:14.185Z,0.29
2022-10-08T01:58:14.588Z,0.06
2022-10-08T02:10:14.997Z,0.00
2022-10-08T02:22:15.466Z,0.07
2022-10-08T02:34:15.927Z,0.00
2022-10-08T02:46:16.458Z,0.00
2022-10-08T02:58:16.839Z,0.00
2022-10-08T03:10:17.271Z,0.00
2022-10-08T03:22:17.755Z,0.00
2022-10-08T03:34:18.191Z,0.00
2022-10-08T03:46:18.648Z,0.00
2022-10-08T03:58:19.103Z,0.00
2022-10-08T04:10:19.565Z,0.05
2022-10-08T04:22:19.975Z,0.00
2022-10-08T04:34:20.481Z,0.00
2022-10-08T04:46:20.932Z,0.01
2022-10-08T04:58:21.325Z,0.00
2022-10-08T05:10:21.841Z,0.00
2022-10-08T05:22:22.293Z,0.00
2022-10-08T05:34:22.674Z,0.00
2022-10-08T05:46:23.233Z,0.01
2022-10-08T05:58:27.315Z,0.02
2022-10-08T06:10:24.096Z,0.31
2022-10-08T06:22:24.526Z,0.00
2022-10-08T06:34:24.986Z,0.12
2022-10-08T06:46:25.537Z,0.02
2022-10-08T06:58:25.903Z,0.14
2022-10-08T07:10:29.785Z,0.01
2022-10-08T07:22:26.779Z,0.00
2022-10-08T07:34:27.263Z,0.19
2022-10-08T07:46:27.735Z,0.16
2022-10-08T07:58:28.164Z,0.29
2022-10-08T08:10:28.637Z,0.57
2022-10-08T08:22:29.024Z,0.86
2022-10-08T08:34:29.535Z,1.22
2022-10-08T08:46:30.077Z,0.84
2022-10-08T08:58:30.398Z,0.89
2022-10-08T09:10:30.894Z,1.02
2022-10-08T09:22:31.311Z,0.29
2022-10-08T09:34:31.914Z,0.32
2022-10-08T09:46:32.243Z,0.89
2022-10-08T09:58:32.723Z,0.76
2022-10-08T10:10:33.167Z,1.61
2022-10-08T10:22:33.635Z,1.16
2022-10-08T10:34:34.101Z,1.34
2022-10-08T10:46:34.629Z,1.19
2022-10-08T10:58:35.257Z,1.47
2022-10-08T11:10:35.441Z,1.34
2022-10-08T11:22:35.908Z,1.29
2022-10-08T11:34:36.374Z,1.43
2022-10-08T11:46:36.935Z,1.26
2022-10-08T11:58:37.270Z,1.88
2022-10-08T12:10:37.724Z,1.05
2022-10-08T12:22:38.192Z,0.96
2022-10-08T12:34:38.658Z,1.45
2022-10-08T12:46:39.215Z,0.95
2022-10-08T12:58:39.502Z,0.74
2022-10-08T13:10:39.994Z,0.92
2022-10-08T13:22:40.470Z,0.63
2022-10-08T13:34:40.922Z,0.92
2022-10-08T13:46:41.361Z,1.46
2022-10-08T13:58:41.852Z,1.31
2022-10-08T14:10:42.298Z,0.62
2022-10-08T14:22:42.746Z,0.82
2022-10-08T14:34:43.184Z,0.81
2022-10-08T14:46:43.637Z,0.51
2022-10-08T14:58:44.090Z,0.41
2022-10-08T15:10:44.549Z,0.52
2022-10-08T15:22:45.207Z,0.20
2022-10-08T15:34:45.457Z,0.33
2022-10-08T15:46:45.932Z,0.02
2022-10-08T15:58:50.874Z,0.00
2022-10-08T16:10:46.807Z,0.00
2022-10-08T16:22:47.478Z,0.02
2022-10-08T16:34:51.290Z,0.00
2022-10-08T16:46:48.157Z,0.00
2022-10-08T16:58:48.600Z,0.02
2022-10-08T17:10:49.128Z,0.00
2022-10-08T17:22:50.174Z,0.23
2022-10-08T17:34:50.009Z,0.00
2022-10-08T17:46:50.438Z,0.00
2022-10-08T17:58:50.923Z,0.00
2022-10-08T18:10:51.411Z,0.00
2022-10-08T18:22:51.816Z,0.00
2022-10-08T18:34:52.259Z,0.00
2022-10-08T18:46:52.789Z,0.04
2022-10-08T18:58:53.180Z,0.11
2022-10-08T19:10:53.671Z,0.03
2022-10-08T19:22:54.095Z,0.05
2022-10-08T19:34:54.565Z,0.05
2022-10-08T19:46:55.083Z,0.17
2022-10-08T19:58:55.475Z,0.09
2022-10-08T20:10:55.885Z,0.16
2022-10-08T20:22:56.367Z,0.00
2022-10-08T20:34:56.868Z,0.00
2022-10-08T20:46:57.383Z,0.01
2022-10-08T20:58:57.734Z,0.03
2022-10-08T21:10:58.207Z,0.01
2022-10-08T21:22:58.663Z,0.00
2022-10-08T21:34:59.080Z,0.15
2022-10-08T21:46:59.550Z,0.00
2022-10-08T21:59:00.016Z,0.00
2022-10-08T22:11:00.421Z,0.00
2022-10-08T22:23:00.873Z,0.00
2022-10-08T22:35:01.355Z,0.10
2022-10-08T22:47:01.811Z,0.01
2022-10-08T22:59:02.272Z,0.00
2022-10-08T23:11:02.713Z,0.00
2022-10-08T23:23:03.163Z,0.20
2022-10-08T23:35:03.637Z,0.01
2022-10-08T23:47:04.085Z,0.00
2022-10-08T23:59:04.535Z,0.25
